Flight Track Log - Related Links

Times and Time Zones

All times are in EST time to prevent confusion due to time zone crossing. See the UAL1154 flight status page for this flight to view local times or setup timezone preferences in your user account.

Time Position Orientation Groundspeed Altitude Reporting Facility
EST Latitude Longitude Course Direction KTS MPH feet Rate Location/Type
Tue 09:15:30 AM 38.5689 -77.5690 179° South 368 423 13,400  Level FlightAware ADS-B (KWWD)
Tue 09:16:08 AM 38.5031 -77.5679 179° South 371 427 15,300 2,704 Climbing FlightAware ADS-B (KWWD)
Tue 09:16:41 AM 38.4452 -77.5672 180° South 370 426 16,600 2,045 Climbing FlightAware ADS-B (KWWD)
Tue 09:22:00 AM 38.0620 -78.0306 218° Southwest 385 443 27,300 1,944 Climbing FlightAware ADS-B (KCHO)
Tue 09:22:36 AM 38.0082 -78.0842 218° Southwest 387 445 28,100 1,421 Climbing FlightAware ADS-B (KCHO)
Tue 09:23:16 AM 37.9512 -78.1410 218° Southwest 387 445 29,100 2,143 Climbing FlightAware ADS-B (KCHO)
Tue 09:23:46 AM 37.9129 -78.1789 218° Southwest 368 423 30,600 1,869 Climbing FlightAware ADS-B (KCHO)
Tue 09:24:17 AM 37.8760 -78.2156 219° Southwest 374 430 31,000 429 Climbing FlightAware ADS-B (KCHO)
Tue 09:24:56 AM 37.8155 -78.2759 218° Southwest 387 445 31,100 771 Climbing FlightAware ADS-B (KCHO)
Tue 09:25:27 AM 37.7713 -78.3195 218° Southwest 386 444 31,900 1,425 Climbing FlightAware ADS-B (KCHO)
Tue 09:26:16 AM 37.7062 -78.3836 218° Southwest 381 438 33,000 543 Climbing FlightAware ADS-B (KCHO)
Tue 09:29:30 AM 37.4197 -78.6347 203° Southwest 399 459 34,100 667 Climbing FlightAware ADS-B (KWWD)
Tue 09:30:46 AM 37.3023 -78.7196 211° Southwest 375 432 36,000 942 Climbing FlightAware ADS-B (KWWD)
Tue 09:31:31 AM 37.2335 -78.7689 210° Southwest 373 429 36,000  Level FlightAware ADS-B (KWWD)
Tue 09:32:28 AM 37.1600 -78.8208 210° Southwest 391 450 36,000  Level Washington Center
Tue 09:33:28 AM 37.0683 -78.8872 210° Southwest 385 443 36,000  Level Washington Center
Tue 09:34:29 AM 36.9747 -78.9508 209° Southwest 385 443 36,000  Level Washington Center
Tue 09:35:30 AM 36.8833 -79.0144 209° Southwest 385 443 36,000  Level Washington Center
Tue 09:36:30 AM 36.7789 -79.0875 209° Southwest 385 443 36,000  Level Washington Center
Tue 09:37:28 AM 36.6894 -79.1508 210° Southwest 385 443 36,000  Level Washington Center
Tue 09:38:29 AM 36.5958 -79.2164 209° Southwest 385 443 36,000  Level Washington Center
Tue 09:39:30 AM 36.5039 -79.2819 210° Southwest 385 443 36,000  Level Washington Center
Tue 09:41:34 AM 36.3031 -79.4194 209° Southwest 381 438 36,000  Level Atlanta Center
Tue 09:42:34 AM 36.2075 -79.4842 209° Southwest 386 444 36,000  Level Atlanta Center
Tue 09:43:34 AM 36.1139 -79.5486 209° Southwest 386 444 36,000  Level Atlanta Center
Tue 09:44:34 AM 36.0136 -79.6028 204° Southwest 391 450 36,000  Level Atlanta Center
Tue 09:45:34 AM 35.9133 -79.6597 205° Southwest 396 456 36,000  Level Atlanta Center
Tue 09:46:34 AM 35.8214 -79.7133 205° Southwest 396 456 36,000  Level Atlanta Center
Tue 09:47:34 AM 35.7211 -79.7697 205° Southwest 396 456 36,000  Level Atlanta Center
Tue 09:48:34 AM 35.6253 -79.8308 207° Southwest 396 456 36,000  Level Atlanta Center
Tue 09:49:34 AM 35.5208 -79.8897 205° Southwest 401 461 36,000  Level Atlanta Center
Tue 09:50:34 AM 35.4225 -79.9433 204° Southwest 396 456 36,000  Level Atlanta Center
Tue 09:51:34 AM 35.3100 -80.0075 205° Southwest 396 456 36,000  Level Atlanta Center
Tue 09:52:34 AM 35.2114 -80.0606 204° Southwest 396 456 36,000  Level Atlanta Center
Tue 09:59:02 AM 34.5499 -80.4308 205° Southwest 410 472 36,000  Level FlightAware ADS-B (EFHN)
Tue 09:59:51 AM 34.4646 -80.4777 204° Southwest 411 473 36,000  Level FlightAware ADS-B (EFHN)
Tue 10:00:30 AM 34.3976 -80.5145 204° Southwest 409 471 36,000  Level FlightAware ADS-B (EFHN)
Tue 10:01:22 AM 34.3068 -80.5643 205° Southwest 408 470 36,000  Level FlightAware ADS-B (EFHN)
Tue 10:01:52 AM 34.2563 -80.5919 205° Southwest 407 468 36,000  Level FlightAware ADS-B (EFHN)
Tue 10:02:37 AM 34.1791 -80.6342 205° Southwest 405 466 36,000  Level FlightAware ADS-B (EFHN)
Tue 10:03:21 AM 34.1033 -80.6755 204° Southwest 404 465 36,000  Level FlightAware ADS-B (EFHN)
Tue 10:04:05 AM 34.0284 -80.7164 205° Southwest 403 464 36,000  Level FlightAware ADS-B (EFHN)
Tue 10:04:36 AM 33.9753 -80.7453 204° Southwest 404 465 36,000  Level FlightAware ADS-B (EFHN)
Tue 10:05:06 AM 33.9251 -80.7726 204° Southwest 403 464 36,000  Level FlightAware ADS-B (EFHN)
Tue 10:05:36 AM 33.8734 -80.8006 204° Southwest 404 465 36,000  Level FlightAware ADS-B (EFHN)
Tue 10:06:06 AM 33.8226 -80.8282 204° Southwest 405 466 36,000  Level FlightAware ADS-B (EFHN)
Tue 10:06:51 AM 33.7454 -80.8699 204° Southwest 406 467 36,000  Level FlightAware ADS-B (EFHN)
Tue 10:08:18 AM 33.5968 -80.9500 204° Southwest 408 470 36,000  Level FlightAware ADS-B (EFHN)
Tue 10:08:50 AM 33.5589 -80.9733 204° Southwest 408 470 36,000  Level Jacksonville Center
Tue 10:09:49 AM 33.4553 -81.0303 205° Southwest 413 475 36,000  Level Jacksonville Center
Tue 10:10:49 AM 33.3519 -81.0872 205° Southwest 413 475 36,000 -50 Level Jacksonville Center
Tue 10:11:50 AM 33.2461 -81.1417 203° Southwest 413 475 35,900  Descending Jacksonville Center
Tue 10:12:50 AM 33.1425 -81.1958 204° Southwest 413 475 36,000 50 Climbing Jacksonville Center
Tue 10:13:49 AM 33.0389 -81.2522 205° Southwest 413 475 36,000  Level Jacksonville Center
Tue 10:14:50 AM 32.9333 -81.3086 204° Southwest 413 475 36,000  Level Jacksonville Center
Tue 10:15:49 AM 32.8150 -81.3675 203° Southwest 418 481 36,000 -50 Level Jacksonville Center
Tue 10:16:49 AM 32.7072 -81.4261 205° Southwest 418 481 35,900  Descending Jacksonville Center
Tue 10:17:50 AM 32.6075 -81.4794 204° Southwest 407 468 36,000 50 Climbing Jacksonville Center
Tue 10:18:49 AM 32.4994 -81.5353 204° Southwest 407 468 36,000  Level Jacksonville Center
Tue 10:19:50 AM 32.3958 -81.5911 204° Southwest 412 474 36,000  Level Jacksonville Center
Tue 10:20:50 AM 32.2981 -81.6417 204° Southwest 417 480 36,000  Level Jacksonville Center
Tue 10:21:49 AM 32.1819 -81.7019 204° Southwest 417 480 36,000  Level Jacksonville Center
Tue 10:22:49 AM 32.0739 -81.7575 204° Southwest 417 480 36,000  Level Jacksonville Center
Tue 10:23:49 AM 31.9781 -81.8050 203° Southwest 423 487 36,000  Level Jacksonville Center
Tue 10:24:50 AM 31.8597 -81.8678 204° Southwest 417 480 36,000  Level Jacksonville Center
Tue 10:25:49 AM 31.7639 -81.9175 204° Southwest 417 480 36,000  Level Jacksonville Center
Tue 10:26:50 AM 31.6475 -81.9775 204° Southwest 417 480 36,000  Level Jacksonville Center
Tue 10:27:49 AM 31.5478 -82.0272 203° Southwest 417 480 36,000  Level Jacksonville Center
Tue 10:28:50 AM 31.4394 -82.0817 203° Southwest 424 488 36,000  Level Jacksonville Center
Tue 10:29:50 AM 31.3311 -82.1411 205° Southwest 424 488 36,000  Level Jacksonville Center
Tue 10:30:49 AM 31.2250 -82.1928 203° Southwest 424 488 36,000  Level Jacksonville Center
Tue 10:31:49 AM 31.1167 -82.2469 203° Southwest 424 488 36,000  Level Jacksonville Center
Tue 10:37:11 AM 30.5282 -82.5413 203° Southwest 419 482 36,000  Level FlightAware ADS-B
Tue 10:38:24 AM 30.3942 -82.5922 197° South 426 490 36,000  Level FlightAware ADS-B
Tue 10:39:11 AM 30.3038 -82.6244 197° South 425 489 36,000  Level FlightAware ADS-B
Tue 10:39:50 AM 30.2293 -82.6509 197° South 425 489 36,000  Level FlightAware ADS-B
Tue 10:40:20 AM 30.1734 -82.6706 197° South 424 488 36,000  Level FlightAware ADS-B
Tue 10:41:01 AM 30.1008 -82.6962 197° South 422 486 36,000  Level FlightAware ADS-B
Tue 10:42:01 AM 29.9867 -82.7366 197° South 419 482 36,000  Level FlightAware ADS-B
Tue 10:42:32 AM 29.9270 -82.7576 197° South 418 481 36,000  Level FlightAware ADS-B
Tue 10:43:31 AM 29.8211 -82.7951 197° South 416 479 36,000  Level FlightAware ADS-B
Tue 10:44:10 AM 29.7478 -82.8208 197° South 416 479 36,000  Level FlightAware ADS-B
Tue 10:45:00 AM 29.6558 -82.8531 197° South 415 478 36,000  Level FlightAware ADS-B
Tue 10:47:31 AM 29.3830 -82.9483 197° South 404 465 36,000  Level FlightAware ADS-B
Tue 10:49:20 AM 29.1875 -83.0163 197° South 404 465 36,000  Level FlightAware ADS-B
Tue 10:50:50 AM 29.0367 -83.0731 197° South 400 460 36,000  Level Jacksonville Center
Tue 10:51:49 AM 28.9281 -83.1083 196° South 405 466 36,000  Level Jacksonville Center
Tue 10:52:49 AM 28.8194 -83.1461 197° South 405 466 36,000 -50 Level Jacksonville Center
Tue 10:53:49 AM 28.7131 -83.1836 197° South 400 460 35,900  Descending Jacksonville Center
Tue 10:55:24 AM 28.5444 -83.2428 197° South 403 464 36,000 39 Climbing Miami Center
Tue 10:56:24 AM 28.4364 -83.2789 196° South 403 464 36,000  Level Miami Center
Tue 10:57:24 AM 28.3306 -83.3131 196° South 409 471 36,000  Level Miami Center
Tue 10:58:24 AM 28.2247 -83.3492 197° South 409 471 36,000  Level Miami Center
Tue 10:59:24 AM 28.1167 -83.3853 196° South 409 471 36,000 -300 Level Miami Center
Tue 11:00:24 AM 28.0147 -83.4264 200° South 409 471 35,400 -850 Descending Miami Center
Tue 11:01:24 AM 27.9603 -83.5267 238° Southwest 360 414 34,300 -750 Descending Miami Center
Tue 11:02:24 AM 27.9261 -83.6325 250° West 360 414 33,900 -150 Descending Miami Center
Tue 11:03:24 AM 27.8836 -83.7381 246° West 360 414 34,000 50 Climbing Miami Center
Tue 11:04:24 AM 27.8408 -83.8433 245° Southwest 366 421 34,000  Level Miami Center
Tue 11:05:24 AM 27.8086 -83.9492 251° West 371 427 34,000  Level Miami Center
Tue 11:06:24 AM 27.7658 -84.0544 245° Southwest 371 427 34,000  Level Miami Center
Tue 11:07:24 AM 27.7272 -84.1597 248° West 371 427 34,000  Level Miami Center
Tue 11:08:24 AM 27.6883 -84.2650 247° West 366 421 34,000  Level Miami Center
Tue 11:09:24 AM 27.6453 -84.3722 246° West 366 421 34,000 -50 Level Miami Center
Tue 11:10:24 AM 27.6106 -84.4797 250° West 366 421 33,900  Descending Miami Center
Tue 11:12:07 AM 27.5469 -84.6461 247° West 368 423 34,000 36 Climbing Houston Center
Tue 11:13:09 AM 27.5067 -84.7508 247° West 366 421 34,000  Level Houston Center
Tue 11:14:11 AM 27.4208 -84.8458 225° Southwest 383 441 34,000  Level Houston Center
Tue 11:15:13 AM 27.3267 -84.9239 216° Southwest 398 458 34,000  Level Houston Center
Tue 11:16:15 AM 27.2367 -84.9992 217° Southwest 401 461 34,000  Level Houston Center
Tue 11:17:16 AM 27.1461 -85.0747 217° Southwest 403 464 34,000  Level Houston Center
Tue 11:18:18 AM 27.0558 -85.1517 217° Southwest 406 467 34,000 -48 Level Houston Center
Tue 11:19:20 AM 26.9636 -85.2261 216° Southwest 406 467 33,900  Descending Houston Center
Tue 11:20:22 AM 26.8731 -85.3025 217° Southwest 409 471 34,000  Climbing Houston Center
Tue 11:21:24 AM 26.7644 -85.3942 217° Southwest 408 470 33,900 -48 Descending Houston Center
Tue 11:22:26 AM 26.6739 -85.4683 216° Southwest 407 468 33,900 -242 Level Houston Center
Tue 11:23:28 AM 26.5822 -85.5433 216° Southwest 407 468 33,400 -683 Descending Houston Center
Tue 11:24:29 AM 26.4922 -85.6192 217° Southwest 407 468 32,500 -927 Descending Houston Center
Tue 11:25:31 AM 26.4011 -85.6944 217° Southwest 407 468 31,500 -968 Descending Houston Center
Tue 11:26:33 AM 26.3061 -85.7706 216° Southwest 414 476 30,500 -774 Descending Houston Center
Tue 11:27:35 AM 26.1928 -85.8644 217° Southwest 419 482 29,900 -242 Descending Houston Center
Tue 11:28:37 AM 26.0964 -85.9428 216° Southwest 419 482 30,000 97 Climbing Houston Center
Tue 11:30:00 AM 25.9737 -86.0285 211° Southwest  Level FlightAware Approximate
Tue 11:37:00 AM 25.3284 -86.4546 211° Southwest  Level FlightAware Approximate
Tue 11:38:00 AM 25.2361 -86.5151 211° Southwest  Level FlightAware Approximate
Tue 11:39:00 AM 25.1438 -86.5755 211° Southwest  Level FlightAware Approximate
Tue 11:40:00 AM 25.0514 -86.6358 211° Southwest  Level FlightAware Approximate
Tue 11:41:00 AM 24.9591 -86.6960 211° Southwest  Level FlightAware Approximate
Tue 11:42:00 AM 24.8647 -86.7574 211° Southwest  Level FlightAware Approximate
Tue 11:43:00 AM 24.7704 -86.8187 211° Southwest  Level FlightAware Approximate
Tue 11:44:00 AM 24.6760 -86.8799 211° Southwest  Level FlightAware Approximate
Tue 11:45:00 AM 24.5816 -86.9410 210° Southwest  Level FlightAware Approximate
Tue 11:46:00 AM 24.4872 -87.0020 210° Southwest  Level FlightAware Approximate
Tue 11:47:00 AM 24.3927 -87.0629 210° Southwest  Level FlightAware Approximate
Tue 11:48:00 AM 24.2983 -87.1237 210° Southwest  Level FlightAware Approximate
Tue 11:49:00 AM 24.2079 -87.1915 215° Southwest  Level FlightAware Approximate
Tue 11:50:00 AM 24.1182 -87.2604 215° Southwest  Level FlightAware Approximate
Tue 11:51:00 AM 24.0285 -87.3293 215° Southwest  Level FlightAware Approximate
Tue 11:52:00 AM 23.9388 -87.3981 215° Southwest  Level FlightAware Approximate
Tue 11:53:00 AM 23.8491 -87.4667 215° Southwest  Level FlightAware Approximate
Tue 11:54:00 AM 23.7593 -87.5353 215° Southwest  Level FlightAware Approximate
Tue 11:55:00 AM 23.6695 -87.6038 215° Southwest  Level FlightAware Approximate
Tue 11:56:00 AM 23.5797 -87.6722 215° Southwest  Level FlightAware Approximate
Tue 11:57:00 AM 23.4898 -87.7405 215° Southwest  Level FlightAware Approximate
Tue 11:58:00 AM 23.3951 -87.7680 160° South  Level FlightAware Approximate
Tue 11:59:00 AM 23.2923 -87.7267 160° South  Level FlightAware Approximate
Tue 12:00:00 PM 23.1895 -87.6855 160° South  Level FlightAware Approximate
Tue 12:01:00 PM 23.0867 -87.6444 160° South  Level FlightAware Approximate
Tue 12:02:00 PM 22.9839 -87.6034 160° South  Level FlightAware Approximate
Tue 12:03:00 PM 22.8811 -87.5624 160° South  Level FlightAware Approximate
Tue 12:04:00 PM 22.7784 -87.5219 165° South  Level FlightAware Approximate
Tue 12:05:00 PM 22.6729 -87.4902 165° South  Level FlightAware Approximate
Tue 12:06:00 PM 22.5748 -87.4416 163° South  Level FlightAware Approximate
Tue 12:07:00 PM 22.4701 -87.4066 163° South  Level FlightAware Approximate
Tue 12:08:00 PM 22.3654 -87.3717 163° South  Level FlightAware Approximate
Tue 12:09:00 PM 22.2607 -87.3369 163° South  Level FlightAware Approximate
Tue 12:10:00 PM 22.1576 -87.2970 160° South  Level FlightAware Approximate
Tue 12:11:00 PM 22.0547 -87.2565 160° South  Level FlightAware Approximate
Tue 12:12:00 PM 21.9518 -87.2160 160° South  Level FlightAware Approximate
Tue 12:13:00 PM 21.8489 -87.1757 160° South  Level FlightAware Approximate
Tue 12:14:00 PM 21.7450 -87.1385 164° South  Level FlightAware Approximate
Tue 12:15:00 PM 21.6395 -87.1068 164° South  Level FlightAware Approximate
Tue 12:16:00 PM 21.5403 -87.0616 161° South  Level FlightAware Approximate
Tue 12:17:00 PM 21.4365 -87.0239 161° South  Level FlightAware Approximate
Tue 12:18:00 PM 21.3321 -86.9885 163° South  Level FlightAware Approximate
Tue 12:19:00 PM 21.2275 -86.9536 163° South  Level FlightAware Approximate
Tue 12:20:00 PM 21.1258 -86.9103 160° South  Level FlightAware Approximate
Tue 12:21:00 PM 21.0365 -86.8771 160° South  Level Estimated
Tue 12:22:00 PM 21.0365 -86.8771 160° South  Level Estimated
Tue 12:23:00 PM 21.0365 -86.8771 160° South  Level Estimated
Tue 12:24:00 PM 21.0365 -86.8771 160° South  Level Estimated

Login

Don't have an account? Register now (free) for customized features, flight alerts, and more!